createdAt,value
2023-04-21T00:00:18.817Z,14.35
2023-04-21T00:03:05.425Z,14.35
2023-04-21T00:05:51.654Z,14.93
2023-04-21T00:08:40.360Z,15.00
2023-04-21T00:11:26.223Z,14.10
2023-04-21T00:14:13.528Z,15.10
2023-04-21T00:17:00.278Z,14.43
2023-04-21T00:19:45.882Z,14.73
2023-04-21T00:22:31.933Z,14.45
2023-04-21T00:25:17.634Z,14.93
2023-04-21T00:28:03.460Z,14.20
2023-04-21T00:30:50.600Z,15.80
2023-04-21T00:33:36.185Z,15.82
2023-04-21T00:36:21.769Z,15.60
2023-04-21T00:39:07.597Z,15.98
2023-04-21T00:41:54.801Z,16.05
2023-04-21T00:44:40.346Z,17.33
2023-04-21T00:47:27.953Z,17.00
2023-04-21T00:50:13.713Z,16.92
2023-04-21T00:53:00.063Z,17.67
2023-04-21T00:55:46.738Z,16.42
2023-04-21T00:58:33.932Z,16.67
2023-04-21T01:01:19.582Z,17.23
2023-04-21T01:04:07.321Z,16.88
2023-04-21T01:06:53.136Z,17.95
2023-04-21T01:09:39.188Z,17.20
2023-04-21T01:12:25.242Z,17.27
2023-04-21T01:15:12.568Z,16.98
2023-04-21T01:17:58.319Z,16.83
2023-04-21T01:20:45.971Z,18.88
2023-04-21T01:23:32.641Z,16.95
2023-04-21T01:26:19.415Z,19.25
2023-04-21T01:29:05.017Z,19.02
2023-04-21T01:31:51.287Z,18.70
2023-04-21T01:34:37.458Z,19.50
2023-04-21T01:37:24.914Z,18.60
2023-04-21T01:40:12.566Z,20.65
2023-04-21T01:42:59.345Z,19.83
2023-04-21T01:45:45.046Z,20.33
2023-04-21T01:48:30.672Z,20.55
2023-04-21T01:51:18.957Z,19.95
2023-04-21T01:54:05.069Z,19.80
2023-04-21T01:56:52.326Z,19.90
2023-04-21T01:59:39.860Z,20.88
2023-04-21T02:02:26.356Z,20.00
2023-04-21T02:05:11.952Z,20.05
2023-04-21T02:08:00.425Z,21.35
2023-04-21T02:10:46.462Z,21.80
2023-04-21T02:13:33.446Z,21.63
2023-04-21T02:16:20.469Z,22.85
2023-04-21T02:19:06.805Z,23.15
2023-04-21T02:21:53.541Z,22.52
2023-04-21T02:24:41.166Z,24.20
2023-04-21T02:27:26.705Z,22.73
2023-04-21T02:30:13.740Z,23.45
2023-04-21T02:33:00.829Z,24.10
2023-04-21T02:35:46.844Z,22.65
2023-04-21T02:38:32.611Z,22.55
2023-04-21T02:41:18.423Z,24.40
2023-04-21T02:44:04.188Z,24.13
2023-04-21T02:46:51.364Z,24.55
2023-04-21T02:49:41.160Z,23.10
2023-04-21T02:52:27.890Z,23.92
2023-04-21T02:55:13.158Z,22.92
2023-04-21T02:58:00.457Z,23.80
2023-04-21T03:00:46.637Z,24.30
2023-04-21T03:03:33.694Z,24.02
2023-04-21T03:06:19.288Z,23.70
2023-04-21T03:09:04.995Z,23.08
2023-04-21T03:11:51.498Z,22.00
2023-04-21T03:14:37.342Z,22.25
2023-04-21T03:17:23.382Z,21.67
2023-04-21T03:20:12.752Z,22.25
2023-04-21T03:22:58.363Z,21.63
2023-04-21T03:25:44.198Z,22.10
2023-04-21T03:28:29.865Z,22.08
2023-04-21T03:31:15.495Z,21.70
2023-04-21T03:34:01.087Z,22.23
2023-04-21T03:36:48.074Z,23.05
2023-04-21T03:39:34.179Z,20.90
2023-04-21T03:42:20.622Z,21.17
2023-04-21T03:45:13.738Z,21.77
2023-04-21T03:47:59.219Z,21.50
2023-04-21T03:50:45.200Z,21.50
2023-04-21T03:53:31.969Z,20.88
2023-04-21T03:56:17.896Z,21.75
2023-04-21T03:59:03.612Z,21.52
2023-04-21T04:01:49.352Z,22.27
2023-04-21T04:04:35.278Z,22.48
2023-04-21T04:07:21.381Z,21.92
2023-04-21T04:10:08.543Z,21.77
2023-04-21T04:12:55.250Z,22.88
2023-04-21T04:15:40.752Z,22.40
2023-04-21T04:18:26.402Z,22.23
2023-04-21T04:21:12.322Z,22.85
2023-04-21T04:23:59.037Z,23.02
2023-04-21T04:26:46.980Z,22.55
2023-04-21T04:29:33.075Z,23.25
2023-04-21T04:32:18.733Z,23.63
2023-04-21T04:35:05.371Z,23.27
2023-04-21T04:37:51.386Z,24.38
2023-04-21T04:40:37.581Z,24.13
2023-04-21T04:43:25.459Z,24.50
2023-04-21T04:46:12.998Z,25.08
2023-04-21T04:48:59.331Z,23.00
2023-04-21T04:51:44.877Z,26.10
2023-04-21T04:54:30.804Z,26.73
2023-04-21T04:57:16.829Z,26.88
2023-04-21T05:00:06.294Z,26.70
2023-04-21T05:02:52.673Z,27.90
2023-04-21T05:05:38.390Z,25.77
2023-04-21T05:08:23.825Z,25.98
2023-04-21T05:11:09.660Z,26.02
2023-04-21T05:13:55.782Z,26.40
2023-04-21T05:16:43.568Z,27.90
2023-04-21T05:19:28.966Z,27.90
2023-04-21T05:22:14.627Z,28.83
2023-04-21T05:25:00.344Z,27.77
2023-04-21T05:27:45.861Z,27.60
2023-04-21T05:30:31.525Z,29.48
2023-04-21T05:33:19.901Z,28.40
2023-04-21T05:36:08.013Z,28.42
2023-04-21T05:38:55.046Z,28.40
2023-04-21T05:41:42.046Z,27.27
2023-04-21T05:44:27.654Z,27.58
2023-04-21T05:47:13.251Z,27.67
2023-04-21T05:50:00.288Z,26.75
2023-04-21T05:52:46.029Z,26.98
2023-04-21T05:55:33.807Z,28.15
2023-04-21T05:58:19.491Z,28.15
2023-04-21T06:01:06.542Z,29.83
2023-04-21T06:03:52.603Z,29.30
2023-04-21T06:06:39.913Z,28.95
2023-04-21T06:09:25.829Z,30.20
2023-04-21T06:12:11.385Z,29.75
2023-04-21T06:14:57.652Z,29.52
2023-04-21T06:17:43.568Z,28.58
2023-04-21T06:20:29.690Z,29.17
2023-04-21T06:23:16.411Z,28.20
2023-04-21T06:26:04.875Z,27.80
2023-04-21T06:28:50.633Z,28.90
2023-04-21T06:31:39.352Z,28.42
2023-04-21T06:34:25.285Z,28.70
2023-04-21T06:37:11.210Z,29.77
2023-04-21T06:39:58.284Z,27.95
2023-04-21T06:42:43.831Z,23.80
2023-04-21T06:45:29.421Z,21.50
2023-04-21T06:48:15.196Z,19.85
2023-04-21T06:51:02.665Z,20.08
2023-04-21T06:53:48.574Z,18.77
2023-04-21T06:56:36.012Z,20.48
2023-04-21T06:59:22.368Z,20.95
2023-04-21T07:02:08.481Z,21.15
2023-04-21T07:04:54.111Z,20.58
2023-04-21T07:07:39.932Z,21.63
2023-04-21T07:10:25.565Z,20.67
2023-04-21T07:13:12.890Z,20.02
2023-04-21T07:15:58.752Z,19.55
2023-04-21T07:18:44.477Z,18.02
2023-04-21T07:21:32.171Z,18.33
2023-04-21T07:24:17.959Z,18.27
2023-04-21T07:27:04.236Z,19.08
2023-04-21T07:29:51.212Z,20.55
2023-04-21T07:32:38.877Z,19.27
2023-04-21T07:35:24.922Z,21.90
2023-04-21T07:38:10.944Z,19.60
2023-04-21T07:40:56.626Z,19.35
2023-04-21T07:43:42.295Z,19.60
2023-04-21T07:46:32.846Z,19.38
2023-04-21T07:49:19.012Z,20.15
2023-04-21T07:52:04.876Z,19.90
2023-04-21T07:54:50.765Z,20.27
2023-04-21T07:57:38.619Z,19.80
2023-04-21T08:00:24.477Z,20.40
2023-04-21T08:03:12.342Z,20.45
2023-04-21T08:05:58.415Z,20.83
2023-04-21T08:08:44.286Z,20.17
2023-04-21T08:11:29.958Z,19.85
2023-04-21T08:14:15.649Z,20.75
2023-04-21T08:17:01.554Z,21.52
2023-04-21T08:19:48.785Z,20.70
2023-04-21T08:22:36.524Z,20.88
2023-04-21T08:25:22.562Z,20.00
2023-04-21T08:28:08.289Z,20.60
2023-04-21T08:30:54.212Z,20.17
2023-04-21T08:33:49.888Z,20.65
2023-04-21T08:36:42.792Z,20.20
2023-04-21T08:39:29.681Z,20.10
2023-04-21T08:42:16.877Z,20.63
2023-04-21T08:45:03.744Z,19.83
2023-04-21T08:47:50.380Z,19.55
2023-04-21T08:50:37.835Z,20.65
2023-04-21T08:53:24.899Z,19.48
2023-04-21T08:56:11.899Z,20.25
2023-04-21T08:58:57.429Z,21.83
2023-04-21T09:02:09.811Z,21.58
2023-04-21T09:04:56.251Z,20.95
2023-04-21T09:07:42.365Z,20.38
2023-04-21T09:10:29.308Z,20.83
2023-04-21T09:13:15.536Z,20.25
2023-04-21T09:16:02.887Z,19.88
2023-04-21T09:18:49.564Z,19.50
2023-04-21T09:21:35.332Z,20.15
2023-04-21T09:24:21.339Z,18.55
2023-04-21T09:27:10.453Z,18.55
2023-04-21T09:29:55.905Z,17.60
2023-04-21T09:32:42.305Z,18.80
2023-04-21T09:35:28.984Z,18.95
2023-04-21T09:38:14.734Z,18.20
2023-04-21T09:41:00.717Z,20.27
2023-04-21T09:43:48.462Z,19.13
2023-04-21T09:46:36.534Z,19.13
2023-04-21T09:49:24.045Z,18.33
2023-04-21T09:52:19.107Z,18.92
2023-04-21T09:55:11.664Z,19.30
2023-04-21T09:58:00.029Z,18.25
2023-04-21T10:00:48.102Z,18.55
2023-04-21T10:03:36.040Z,18.08
2023-04-21T10:06:23.038Z,19.23
2023-04-21T10:09:11.576Z,19.13
2023-04-21T10:11:57.905Z,20.00
2023-04-21T10:14:43.699Z,19.15
2023-04-21T10:17:35.250Z,17.83
2023-04-21T10:20:21.474Z,17.67
2023-04-21T10:23:07.480Z,18.92
2023-04-21T10:25:53.292Z,19.38
2023-04-21T10:28:44.186Z,19.30
2023-04-21T10:31:32.345Z,18.35
2023-04-21T10:34:29.699Z,20.17
2023-04-21T10:37:19.692Z,19.40
2023-04-21T10:40:09.489Z,20.02
2023-04-21T10:42:55.424Z,19.85
2023-04-21T10:45:41.116Z,19.27
2023-04-21T10:48:27.033Z,19.77
2023-04-21T10:51:15.200Z,19.75
2023-04-21T10:54:01.307Z,18.88
2023-04-21T10:56:47.369Z,19.60
2023-04-21T10:59:35.939Z,17.95
2023-04-21T11:02:21.864Z,18.95
2023-04-21T11:05:09.716Z,18.05
2023-04-21T11:08:04.657Z,18.70
2023-04-21T11:10:55.827Z,17.90
2023-04-21T11:13:41.884Z,18.13
2023-04-21T11:16:27.736Z,18.63
2023-04-21T11:19:15.586Z,17.85
2023-04-21T11:22:01.542Z,16.33
2023-04-21T11:24:51.084Z,16.90
2023-04-21T11:27:36.691Z,17.88
2023-04-21T11:30:31.184Z,16.77
2023-04-21T11:33:17.138Z,16.80
2023-04-21T11:36:04.785Z,16.63
2023-04-21T11:38:50.659Z,15.98
2023-04-21T11:41:41.355Z,16.13
2023-04-21T11:44:33.626Z,15.50
2023-04-21T11:47:21.290Z,15.82
2023-04-21T11:50:09.749Z,15.50
2023-04-21T11:52:56.109Z,15.95
2023-04-21T11:55:43.154Z,15.40
2023-04-21T11:58:31.421Z,15.55
2023-04-21T12:01:18.346Z,15.00
2023-04-21T12:04:04.973Z,16.00
2023-04-21T12:06:58.017Z,15.13
2023-04-21T12:09:43.569Z,16.75
2023-04-21T12:12:29.777Z,13.45
2023-04-21T12:15:23.406Z,15.23
2023-04-21T12:18:13.817Z,15.05
2023-04-21T12:21:01.781Z,15.23
2023-04-21T12:23:47.831Z,14.88
2023-04-21T12:26:33.545Z,15.52
2023-04-21T12:29:19.117Z,15.95
2023-04-21T12:32:07.094Z,16.88
2023-04-21T12:34:52.971Z,17.20
2023-04-21T12:37:38.670Z,17.38
2023-04-21T12:40:24.306Z,18.92
2023-04-21T12:43:09.868Z,18.52
2023-04-21T12:45:55.514Z,18.65
2023-04-21T12:48:42.884Z,17.75
2023-04-21T12:51:28.558Z,18.33
2023-04-21T12:54:15.411Z,17.73
2023-04-21T12:57:01.729Z,18.70
2023-04-21T12:59:47.379Z,18.63
2023-04-21T13:02:37.152Z,19.63
2023-04-21T13:05:24.931Z,18.15
2023-04-21T13:08:10.785Z,18.13
2023-04-21T13:10:56.786Z,19.30
2023-04-21T13:13:42.663Z,17.58
2023-04-21T13:16:30.232Z,18.15
2023-04-21T13:19:16.385Z,18.48
2023-04-21T13:22:03.165Z,19.10
2023-04-21T13:24:49.085Z,18.75
2023-04-21T13:27:37.424Z,19.88
2023-04-21T13:30:23.293Z,18.05
2023-04-21T13:33:09.032Z,17.38
2023-04-21T13:35:54.650Z,17.05
2023-04-21T13:38:42.052Z,17.55
2023-04-21T13:41:27.993Z,16.88
2023-04-21T13:44:13.571Z,16.10
2023-04-21T13:46:59.912Z,16.75
2023-04-21T13:49:46.107Z,17.00
2023-04-21T13:52:32.092Z,16.70
2023-04-21T13:55:19.252Z,16.50
2023-04-21T13:58:05.039Z,16.58
2023-04-21T14:00:51.231Z,15.60
2023-04-21T14:03:37.332Z,16.27
2023-04-21T14:06:23.482Z,16.17
2023-04-21T14:09:09.541Z,15.77
2023-04-21T14:11:57.232Z,15.10
2023-04-21T14:14:42.974Z,15.32
2023-04-21T14:17:33.593Z,15.18
2023-04-21T14:20:19.204Z,15.65
2023-04-21T14:23:05.325Z,14.98
2023-04-21T14:25:51.851Z,15.57
2023-04-21T14:28:40.723Z,16.85
2023-04-21T14:31:26.530Z,16.85
2023-04-21T14:34:12.365Z,16.13
2023-04-21T14:36:58.205Z,15.45
2023-04-21T14:39:44.271Z,15.43
2023-04-21T14:42:30.208Z,16.65
2023-04-21T14:45:18.236Z,15.52
2023-04-21T14:48:04.333Z,16.02
2023-04-21T14:50:50.164Z,15.80
2023-04-21T14:53:36.109Z,15.68
2023-04-21T14:56:21.758Z,15.48
2023-04-21T14:59:07.680Z,13.88
2023-04-21T15:01:55.035Z,14.70
2023-04-21T15:04:41.105Z,15.10
2023-04-21T15:07:26.985Z,14.30
2023-04-21T15:10:13.506Z,14.68
2023-04-21T15:12:59.176Z,14.90
2023-04-21T15:15:45.116Z,15.07
2023-04-21T15:18:32.410Z,15.73
2023-04-21T15:21:19.274Z,15.60
2023-04-21T15:24:05.138Z,15.82
2023-04-21T15:26:51.122Z,15.30
2023-04-21T15:29:37.049Z,15.88
2023-04-21T15:32:23.294Z,15.77
2023-04-21T15:35:11.305Z,16.40
2023-04-21T15:37:57.449Z,15.85
2023-04-21T15:40:53.460Z,15.82
2023-04-21T15:43:46.179Z,16.10
2023-04-21T15:46:31.790Z,16.30
2023-04-21T15:49:17.734Z,16.17
2023-04-21T15:52:06.795Z,15.82
2023-04-21T15:54:52.612Z,15.52
2023-04-21T15:57:39.261Z,15.60
2023-04-21T16:00:25.015Z,16.80
2023-04-21T16:03:10.977Z,16.77
2023-04-21T16:05:57.361Z,17.10
2023-04-21T16:08:45.126Z,16.95
2023-04-21T16:11:30.802Z,16.90
2023-04-21T16:14:17.534Z,16.77
2023-04-21T16:17:03.353Z,16.30
2023-04-21T16:19:49.447Z,15.15
2023-04-21T16:22:35.943Z,15.98
2023-04-21T16:25:23.511Z,15.05
2023-04-21T16:28:09.752Z,16.75
2023-04-21T16:30:55.627Z,16.05
2023-04-21T16:33:41.163Z,16.77
2023-04-21T16:36:28.546Z,16.30
2023-04-21T16:39:14.624Z,15.98
2023-04-21T16:42:02.182Z,16.73
2023-04-21T16:44:48.069Z,15.95
2023-04-21T16:47:41.795Z,17.33
2023-04-21T16:50:27.943Z,17.77
2023-04-21T16:53:13.809Z,19.50
2023-04-21T16:56:02.289Z,18.88
2023-04-21T16:58:49.419Z,18.58
2023-04-21T17:01:35.334Z,18.15
2023-04-21T17:04:21.613Z,17.73
2023-04-21T17:07:07.643Z,18.77
2023-04-21T17:09:53.364Z,18.08
2023-04-21T17:12:39.349Z,19.27
2023-04-21T17:15:27.245Z,19.05
2023-04-21T17:18:13.075Z,18.92
2023-04-21T17:20:58.931Z,18.73
2023-04-21T17:23:44.747Z,18.67
2023-04-21T17:26:30.561Z,19.80
2023-04-21T17:29:16.288Z,19.88
2023-04-21T17:32:03.278Z,19.17
2023-04-21T17:34:48.864Z,18.77
2023-04-21T17:37:37.036Z,19.67
2023-04-21T17:40:26.586Z,18.48
2023-04-21T17:43:15.841Z,19.83
2023-04-21T17:46:01.700Z,21.25
2023-04-21T17:48:49.948Z,20.05
2023-04-21T17:51:36.120Z,7.05
2023-04-21T17:54:21.672Z,6.20
2023-04-21T17:57:07.300Z,2.75
2023-04-21T17:59:53.059Z,2.47
2023-04-21T18:02:39.116Z,1.80
2023-04-21T18:05:26.521Z,1.88
2023-04-21T18:08:12.905Z,2.03
2023-04-21T18:10:58.639Z,1.20
2023-04-21T18:13:44.118Z,1.65
2023-04-21T18:16:30.104Z,1.75
2023-04-21T18:19:18.237Z,1.60
2023-04-21T18:22:05.236Z,1.80
2023-04-21T18:24:51.075Z,1.38
2023-04-21T18:27:36.770Z,1.60
2023-04-21T18:30:22.585Z,1.25
2023-04-21T18:33:08.702Z,1.10
2023-04-21T18:35:54.393Z,2.70
2023-04-21T18:38:41.512Z,3.58
2023-04-21T18:41:27.479Z,2.30
2023-04-21T18:44:13.704Z,2.65
2023-04-21T18:46:59.578Z,2.53
2023-04-21T18:49:46.045Z,3.00
2023-04-21T18:52:31.604Z,3.33
2023-04-21T18:55:18.975Z,3.42
2023-04-21T18:58:04.560Z,4.00
2023-04-21T19:00:50.839Z,3.00
2023-04-21T19:03:36.457Z,3.55
2023-04-21T19:06:22.418Z,6.40
2023-04-21T19:09:08.194Z,6.13
2023-04-21T19:11:55.789Z,6.35
2023-04-21T19:14:47.283Z,5.22
2023-04-21T19:17:33.625Z,4.93
2023-04-21T19:20:19.663Z,5.70
2023-04-21T19:23:05.682Z,4.97
2023-04-21T19:25:54.559Z,5.15
2023-04-21T19:28:42.506Z,5.72
2023-04-21T19:31:28.470Z,5.35
2023-04-21T19:34:14.048Z,4.80
2023-04-21T19:36:59.613Z,7.63
2023-04-21T19:39:45.278Z,7.18
2023-04-21T19:42:31.630Z,6.38
2023-04-21T19:45:19.063Z,7.30
2023-04-21T19:48:06.971Z,8.65
2023-04-21T19:50:52.903Z,9.13
2023-04-21T19:53:38.312Z,8.85
2023-04-21T19:56:24.158Z,8.23
2023-04-21T19:59:09.892Z,8.27
2023-04-21T20:01:57.133Z,8.05
2023-04-21T20:04:43.691Z,8.20
2023-04-21T20:07:29.582Z,7.82
2023-04-21T20:10:15.540Z,7.38
2023-04-21T20:13:01.107Z,8.13
2023-04-21T20:15:46.618Z,9.07
2023-04-21T20:18:34.224Z,8.30
2023-04-21T20:21:20.009Z,7.82
2023-04-21T20:24:05.899Z,8.25
2023-04-21T20:26:51.693Z,7.93
2023-04-21T20:29:37.955Z,8.43
2023-04-21T20:32:23.720Z,7.97
2023-04-21T20:35:11.991Z,8.25
2023-04-21T20:38:01.362Z,9.73
2023-04-21T20:40:50.089Z,7.30
2023-04-21T20:43:36.108Z,3.65
2023-04-21T20:46:21.853Z,3.65
2023-04-21T20:49:07.990Z,4.10
2023-04-21T20:51:58.544Z,3.97
2023-04-21T20:54:44.251Z,4.10
2023-04-21T20:57:29.879Z,4.20
2023-04-21T21:00:15.860Z,4.25
2023-04-21T21:03:02.415Z,4.78
2023-04-21T21:05:48.374Z,6.15
2023-04-21T21:08:35.968Z,6.45
2023-04-21T21:11:22.010Z,5.28
2023-04-21T21:14:07.479Z,5.60
2023-04-21T21:16:54.675Z,6.28
2023-04-21T21:19:41.692Z,7.63
2023-04-21T21:22:28.201Z,9.02
2023-04-21T21:25:15.430Z,6.93
2023-04-21T21:28:01.500Z,4.95
2023-04-21T21:30:47.214Z,15.75
2023-04-21T21:33:33.006Z,15.65
2023-04-21T21:36:18.652Z,20.48
2023-04-21T21:39:04.161Z,10.13
2023-04-21T21:41:51.319Z,4.45
2023-04-21T21:44:36.950Z,4.45
2023-04-21T21:47:22.782Z,6.13
2023-04-21T21:50:11.283Z,6.95
2023-04-21T21:52:56.788Z,3.85
2023-04-21T21:55:42.967Z,3.97
2023-04-21T21:58:30.726Z,4.63
2023-04-21T22:01:18.128Z,4.80
2023-04-21T22:04:03.875Z,4.30
2023-04-21T22:06:50.619Z,4.93
2023-04-21T22:09:37.352Z,4.97
2023-04-21T22:12:23.463Z,5.13
2023-04-21T22:15:11.608Z,5.47
2023-04-21T22:17:57.470Z,5.88
2023-04-21T22:20:43.215Z,5.57
2023-04-21T22:23:28.831Z,6.05
2023-04-21T22:26:14.564Z,5.60
2023-04-21T22:29:00.013Z,6.32
2023-04-21T22:31:47.675Z,6.18
2023-04-21T22:34:33.796Z,6.53
2023-04-21T22:37:19.342Z,6.13
2023-04-21T22:40:06.185Z,6.40
2023-04-21T22:42:51.811Z,7.35
2023-04-21T22:45:37.748Z,8.20
2023-04-21T22:48:28.120Z,8.38
2023-04-21T22:51:14.423Z,7.97
2023-04-21T22:54:00.586Z,8.07
2023-04-21T22:56:47.015Z,7.70
2023-04-21T22:59:32.814Z,9.55
2023-04-21T23:02:18.881Z,10.63
2023-04-21T23:05:07.130Z,10.55
2023-04-21T23:07:52.848Z,9.25
2023-04-21T23:10:39.016Z,7.95
2023-04-21T23:13:24.994Z,8.65
2023-04-21T23:16:10.781Z,8.23
2023-04-21T23:18:56.512Z,7.25
2023-04-21T23:21:43.351Z,7.55
2023-04-21T23:24:29.332Z,7.57
2023-04-21T23:27:15.227Z,7.68
2023-04-21T23:30:01.016Z,7.63
2023-04-21T23:32:46.818Z,7.93
2023-04-21T23:35:32.327Z,8.70
2023-04-21T23:38:19.657Z,8.35
2023-04-21T23:41:05.516Z,8.02
2023-04-21T23:43:51.014Z,7.82
2023-04-21T23:46:37.030Z,8.27
2023-04-21T23:49:23.100Z,8.65
2023-04-21T23:52:08.743Z,8.73
2023-04-21T23:54:56.261Z,8.27
2023-04-21T23:57:44.079Z,9.68
